Home > Products > Valid Products > MTR

000
SAUS46 KSTO 230253
MTRBLU
METAR KBLU 230252Z AUTO 13003KT 10SM CLR 10/01 A3017 RMK AO2 SLP175
T01000006 53005 $





000
SAUS46 KSTO 230153
MTRBLU
METAR KBLU 230152Z AUTO 15004KT 10SM CLR 10/02 A3015 RMK AO2 SLP170
T01000017 $





000
SAUS46 KSTO 230153
MTRBLU
METAR KBLU 230152Z AUTO 15004KT 10SM CLR 10/02 A3015 RMK AO2 SLP170
T01000017 $





000
SAUS46 KSTO 230053
MTRBLU
METAR KBLU 230052Z AUTO 16005KT 10SM CLR 12/01 A3015 RMK AO2 SLP163
T01170011 $





000
SAUS46 KSTO 230053
MTRBLU
METAR KBLU 230052Z AUTO 16005KT 10SM CLR 12/01 A3015 RMK AO2 SLP163
T01170011 $





000
SAUS46 KSTO 222353
MTRBLU
METAR KBLU 222352Z AUTO 18005KT 10SM CLR 13/00 A3015 RMK AO2 SLP163
T01330000 10150 20133 58004 $





000
SAUS46 KSTO 222353
MTRBLU
METAR KBLU 222352Z AUTO 18005KT 10SM CLR 13/00 A3015 RMK AO2 SLP163
T01330000 10150 20133 58004 $





000
SAUS46 KSTO 222253
MTRBLU
METAR KBLU 222252Z AUTO 19004KT 10SM CLR 14/M01 A3016 RMK AO2 SLP166
T01391006 $





000
SAUS46 KSTO 222253
MTRBLU
METAR KBLU 222252Z AUTO 19004KT 10SM CLR 14/M01 A3016 RMK AO2 SLP166
T01391006 $





000
SAUS46 KSTO 222153
MTRBLU
METAR KBLU 222152Z AUTO 17007KT 10SM CLR 14/M02 A3017 RMK AO2 SLP164
T01391022 $





000
SAUS46 KSTO 222053
MTRBLU
METAR KBLU 222052Z AUTO 17005KT 10SM CLR 13/M02 A3017 RMK AO2 SLP171
T01331017 50000





000
SAUS46 KSTO 221953
MTRBLU
METAR KBLU 221952Z AUTO 21005KT 10SM CLR 14/M06 A3018 RMK AO2 SLP172
T01391056





000
SAUS46 KSTO 221853
MTRBLU
METAR KBLU 221852Z AUTO 17007KT 10SM CLR 14/M13 A3018 RMK AO2 SLP172
T01441133





000
SAUS46 KSTO 221753
MTRBLU
METAR KBLU 221752Z AUTO 17006KT 10SM CLR 14/M12 A3017 RMK AO2 SLP170
T01391117 10144 20094 51009





000
SAUS46 KSTO 221753
MTRBLU
METAR KBLU 221752Z AUTO 17006KT 10SM CLR 14/M12 A3017 RMK AO2 SLP170
T01391117 10144 20094 51009





000
SAUS46 KSTO 221653
MTRBLU
METAR KBLU 221652Z AUTO 16007KT 10SM CLR 13/M14 A3016 RMK AO2 SLP168
T01331139





000
SAUS46 KSTO 221653
MTRBLU
METAR KBLU 221652Z AUTO 16007KT 10SM CLR 13/M14 A3016 RMK AO2 SLP168
T01331139





000
SAUS46 KSTO 221553
MTRBLU
METAR KBLU 221552Z AUTO 12003KT 10SM CLR 12/M11 A3015 RMK AO2 SLP169
T01171106





000
SAUS46 KSTO 221553
MTRBLU
METAR KBLU 221552Z AUTO 12003KT 10SM CLR 12/M11 A3015 RMK AO2 SLP169
T01171106





000
SAUS46 KSTO 221453
MTRBLU
METAR KBLU 221452Z AUTO 12003KT 10SM CLR 11/M16 A3014 RMK AO2 SLP168
T01111161 53001





000
SAUS46 KSTO 221353
MTRBLU
METAR KBLU 221352Z AUTO 10004KT 10SM CLR 09/M16 A3013 RMK AO2 SLP169
T00941156





000
SAUS46 KSTO 221253
MTRBLU
METAR KBLU 221252Z AUTO 08003KT 10SM CLR 10/M13 A3013 RMK AO2 SLP160
T01001133





000
SAUS46 KSTO 221153
MTRBLU
METAR KBLU 221152Z AUTO 10003KT 10SM CLR 09/M07 A3013 RMK AO2 SLP161
T00941067 10100 20078 51001





000
SAUS46 KSTO 221053
MTRBLU
METAR KBLU 221052Z AUTO 11003KT 10SM CLR 09/M09 A3013 RMK AO2 SLP160
T00941094





000
SAUS46 KSTO 220953
MTRBLU
METAR KBLU 220952Z AUTO 00000KT 10SM CLR 10/M12 A3014 RMK AO2 SLP163
T01001122





000
SAUS46 KSTO 220953
MTRBLU
METAR KBLU 220952Z AUTO 00000KT 10SM CLR 10/M12 A3014 RMK AO2 SLP163
T01001122





000
SAUS46 KSTO 220854
MTRBLU
METAR KBLU 220852Z AUTO 00000KT 10SM CLR 08/M08 A3013 RMK AO2 SLP162
T00831083 53001





000
SAUS46 KSTO 220753
MTRBLU
METAR KBLU 220752Z AUTO 00000KT 10SM CLR 09/M04 A3012 RMK AO2 SLP161
T00891039 401220011





000
SAUS46 KSTO 220653
MTRBLU
METAR KBLU 220652Z AUTO 10003KT 10SM CLR 08/M05 A3012 RMK AO2 SLP163
T00831050





000
SAUS46 KSTO 220553
MTRBLU
METAR KBLU 220552Z AUTO 00000KT 10SM CLR 08/M02 A3012 RMK AO2 SLP165
T00781022 10111 20072 51006





000
SAUS46 KSTO 220553
MTRBLU
METAR KBLU 220552Z AUTO 00000KT 10SM CLR 08/M02 A3012 RMK AO2 SLP165
T00781022 10111 20072 51006





000
SAUS46 KSTO 220453
MTRBLU
METAR KBLU 220452Z AUTO 00000KT 10SM CLR 09/M01 A3012 RMK AO2 SLP168
T00891011





000
SAUS46 KSTO 220453
MTRBLU
METAR KBLU 220452Z AUTO 00000KT 10SM CLR 09/M01 A3012 RMK AO2 SLP168
T00891011





000
SAUS46 KSTO 220353
MTRBLU
METAR KBLU 220352Z AUTO 07003KT 10SM CLR 08/M01 A3010 RMK AO2 SLP169
T00781006





000
SAUS46 KSTO 220253
MTRBLU
METAR KBLU 220252Z AUTO 06004KT 10SM CLR 08/02 A3010 RMK AO2 SLP168
T00780022 50001





000
SAUS46 KSTO 220253
MTRBLU
METAR KBLU 220252Z AUTO 06004KT 10SM CLR 08/02 A3010 RMK AO2 SLP168
T00780022 50001





000
SAUS46 KSTO 220153
MTRBLU
METAR KBLU 220152Z AUTO 00000KT 10SM CLR 08/02 A3010 RMK AO2 SLP172
T00830022





000
SAUS46 KSTO 220053
MTRBLU
METAR KBLU 220052Z AUTO 00000KT 10SM CLR 11/01 A3010 RMK AO2 SLP170
T01060011





000
SAUS46 KSTO 212353
MTRBLU
METAR KBLU 212352Z AUTO 00000KT 10SM CLR 11/M03 A3010 RMK AO2 SLP167
T01111028 10122 20100 58004





000
SAUS46 KSTO 212253
MTRBLU
METAR KBLU 212252Z AUTO VRB03KT 10SM CLR 11/M04 A3011 RMK AO2 SLP169
T01111044





000
SAUS46 KSTO 212253
MTRBLU
METAR KBLU 212252Z AUTO VRB03KT 10SM CLR 11/M04 A3011 RMK AO2 SLP169
T01111044





000
SAUS46 KSTO 212153
MTRBLU
METAR KBLU 212152Z AUTO VRB03KT 10SM CLR 11/M02 A3011 RMK AO2 SLP166
T01111017





000
SAUS46 KSTO 212153
MTRBLU
METAR KBLU 212152Z AUTO VRB03KT 10SM CLR 11/M02 A3011 RMK AO2 SLP166
T01111017





000
SAUS46 KSTO 212053
MTRBLU
METAR KBLU 212052Z AUTO 20007KT 160V240 10SM CLR 12/M03 A3011 RMK
AO2 SLP167 T01171033 58006





000
SAUS46 KSTO 211953
MTRBLU
METAR KBLU 211952Z AUTO VRB04KT 10SM CLR 11/M07 A3013 RMK AO2 SLP173
T01111072





000
SAUS46 KSTO 211853
MTRBLU
METAR KBLU 211852Z AUTO 17006KT 10SM CLR 11/M06 A3013 RMK AO2 SLP177
T01061061





000
SAUS46 KSTO 211753
MTRBLU
METAR KBLU 211752Z AUTO VRB04KT 10SM CLR 09/M04 A3013 RMK AO2 SLP177
T00941044 10094 20011 50003





000
SAUS46 KSTO 211653
MTRBLU
METAR KBLU 211652Z AUTO 00000KT 10SM CLR 07/M03 A3015 RMK AO2 SLP188
T00721033





000
SAUS46 KSTO 211653
MTRBLU
METAR KBLU 211652Z AUTO 00000KT 10SM CLR 07/M03 A3015 RMK AO2 SLP188
T00721033





000
SAUS46 KSTO 211553
MTRBLU
METAR KBLU 211552Z AUTO 09003KT 10SM CLR 05/M03 A3014 RMK AO2 SLP187
T00501033





000
SAUS46 KSTO 211553
MTRBLU
METAR KBLU 211552Z AUTO 09003KT 10SM CLR 05/M03 A3014 RMK AO2 SLP187
T00501033





000
SAUS46 KSTO 211453
MTRBLU
METAR KBLU 211452Z AUTO 09003KT 10SM CLR 05/M05 A3012 RMK AO2 SLP179
T00501050 51006





000
SAUS46 KSTO 211354
MTRBLU
METAR KBLU 211352Z AUTO 09003KT 10SM CLR 03/M03 A3012 RMK AO2 SLP178
T00331028





000
SAUS46 KSTO 211254
MTRBLU
METAR KBLU 211252Z AUTO 10004KT 10SM CLR 02/M01 A3011 RMK AO2 SLP177
T00171006





000
SAUS46 KSTO 211154
MTRBLU
METAR KBLU 211152Z AUTO 10004KT 10SM CLR 02/01 A3010 RMK AO2 SLP171
70066 T00220006 10044 20022 50002





000
SAUS46 KSTO 211154
MTRBLU
METAR KBLU 211152Z AUTO 10004KT 10SM CLR 02/01 A3010 RMK AO2 SLP171
70066 T00220006 10044 20022 50002





000
SAUS46 KSTO 211104
MTRBLU
SPECI KBLU 211103Z AUTO 09003KT 6SM BR FEW003 FEW010 03/02 A3010 RMK
AO2 T00280017





000
SAUS46 KSTO 211104
MTRBLU
SPECI KBLU 211103Z AUTO 09003KT 6SM BR FEW003 FEW010 03/02 A3010 RMK
AO2 T00280017





000
SAUS46 KSTO 211053
MTRBLU
METAR KBLU 211052Z AUTO 00000KT 10SM FEW010 03/02 A3011 RMK AO2
SLP168 T00330017





000
SAUS46 KSTO 211053
MTRBLU
METAR KBLU 211052Z AUTO 00000KT 10SM FEW010 03/02 A3011 RMK AO2
SLP168 T00330017





000
SAUS46 KSTO 211044
MTRBLU
SPECI KBLU 211043Z AUTO 00000KT 10SM FEW003 SCT009 03/02 A3011 RMK
AO2 T00330017





000
SAUS46 KSTO 211044
MTRBLU
SPECI KBLU 211043Z AUTO 00000KT 10SM FEW003 SCT009 03/02 A3011 RMK
AO2 T00330017





000
SAUS46 KSTO 211028
MTRBLU
SPECI KBLU 211027Z AUTO VRB03KT 10SM SCT003 BKN011 OVC017 04/02
A3011 RMK AO2 T00390022





000
SAUS46 KSTO 211028
MTRBLU
SPECI KBLU 211027Z AUTO VRB03KT 10SM SCT003 BKN011 OVC017 04/02
A3011 RMK AO2 T00390022





000
SAUS46 KSTO 211007
MTRBLU
SPECI KBLU 211006Z AUTO VRB03KT 5SM BR BKN003 OVC007 04/03 A3011 RMK
AO2 T00390028





000
SAUS46 KSTO 211007
MTRBLU
SPECI KBLU 211006Z AUTO VRB03KT 5SM BR BKN003 OVC007 04/03 A3011 RMK
AO2 T00390028





000
SAUS46 KSTO 210958
MTRBLU
SPECI KBLU 210956Z AUTO VRB04KT 2SM BR BKN003 OVC011 04/03 A3010 RMK
AO2 VIS 1V5 T00390028





000
SAUS46 KSTO 210958
MTRBLU
SPECI KBLU 210956Z AUTO VRB04KT 2SM BR BKN003 OVC011 04/03 A3010 RMK
AO2 VIS 1V5 T00390028





000
SAUS46 KSTO 210953
MTRBLU
METAR KBLU 210952Z AUTO 15005KT 1SM BR VV003 04/03 A3010 RMK AO2 VIS
1/2V3 SLP162 T00390028





000
SAUS46 KSTO 210853
MTRBLU
METAR KBLU 210852Z AUTO 17009KT 1/2SM FG VV002 04/03 A3010 RMK AO2
SLP159 T00390028 51009





000
SAUS46 KSTO 210804
MTRBLU
SPECI KBLU 210803Z AUTO 16009KT 3/4SM BR OVC002 04/03 A3009 RMK AO2
VIS 1/2V1 1/2 T00390028





000
SAUS46 KSTO 210753
MTRBLU
METAR KBLU 210752Z AUTO 16007KT 1 1/2SM BR BKN004 OVC009 04/03 A3009
RMK AO2 VIS 3/4V5 SLP158 T00390028 401330039





000
SAUS46 KSTO 210747
MTRBLU
SPECI KBLU 210746Z AUTO 17007KT 1 3/4SM BR BKN004 OVC010 04/03 A3009
RMK AO2





000
SAUS46 KSTO 210721
MTRBLU
SPECI KBLU 210720Z AUTO 17007KT 3SM BR BKN002 OVC007 04/03 A3009 RMK
AO2 T00390028





000
SAUS46 KSTO 210711
MTRBLU
SPECI KBLU 210710Z AUTO 17005KT 1 3/4SM BR BKN004 BKN009 04/03 A3009
RMK AO2 VIS 3/4V3 T00390028





000
SAUS46 KSTO 210654
MTRBLU
METAR KBLU 210652Z AUTO 17006KT 10SM BKN004 BKN014 04/02 A3008 RMK
AO2 CIG 002V008 SLP154 T00390022





000
SAUS46 KSTO 210554
MTRBLU
METAR KBLU 210552Z AUTO 21006KT 10SM BKN004 BKN024 OVC031 04/03
A3007 RMK AO2 SLP148 60066 T00440028 10100 20039 51014





000
SAUS46 KSTO 210521
MTRBLU
SPECI KBLU 210520Z AUTO 22008KT 180V250 9SM BKN002 OVC006 04/03
A3006 RMK AO2 T00440033





000
SAUS46 KSTO 210514
MTRBLU
SPECI KBLU 210513Z AUTO 22007G17KT 1 3/4SM BR OVC002 05/04 A3006 RMK
AO2 VIS 1/2V5 T00500039





000
SAUS46 KSTO 210507
MTRBLU
SPECI KBLU 210506Z AUTO 22010G17KT 1/2SM FG VV002 05/04 A3006 RMK
AO2 T00500039





000
SAUS46 KSTO 210453
MTRBLU
METAR KBLU 210452Z AUTO 21012G19KT 1/4SM FG VV002 05/04 A3006 RMK
AO2 RAE0355 SLP146 P0000 T00500039





000
SAUS46 KSTO 210453
MTRBLU
METAR KBLU 210452Z AUTO 21012G19KT 1/4SM FG VV002 05/04 A3006 RMK
AO2 RAE0355 SLP146 P0000 T00500039





000
SAUS46 KSTO 210441
MTRBLU
SPECI KBLU 210440Z AUTO 25014G18KT 1/4SM FG VV002 06/04 A3006 RMK
AO2 RAE0355 P0000 T00560044





000
SAUS46 KSTO 210413
MTRBLU
SPECI KBLU 210412Z AUTO 23009G19KT 3/4SM BR OVC002 06/04 A3004 RMK
AO2 RAE0355 P0000 T00560044





000
SAUS46 KSTO 210413
MTRBLU
SPECI KBLU 210412Z AUTO 23009G19KT 3/4SM BR OVC002 06/04 A3004 RMK
AO2 RAE0355 P0000 T00560044





000
SAUS46 KSTO 210411
MTRBLU
SPECI KBLU 210410Z AUTO 23010G21KT 1 1/2SM BR OVC002 06/04 A3003 RMK
AO2 RAE0355 P0000 T00560044





000
SAUS46 KSTO 210411
MTRBLU
SPECI KBLU 210410Z AUTO 23010G21KT 1 1/2SM BR OVC002 06/04 A3003 RMK
AO2 RAE0355 P0000 T00560044





000
SAUS46 KSTO 210401
MTRBLU
SPECI KBLU 210401Z AUTO 22011G17KT 3SM BR OVC002 06/04 A3003 RMK AO2
RAE0355 P0000 T00560044





000
SAUS46 KSTO 210401
MTRBLU
SPECI KBLU 210401Z AUTO 22011G17KT 3SM BR OVC002 06/04 A3003 RMK AO2
RAE0355 P0000 T00560044





000
SAUS46 KSTO 210355
MTRBLU
SPECI KBLU 210354Z AUTO 22011G23KT 2SM -RA BR OVC002 06/04 A3003 RMK
AO2 P0000 T00560044





000
SAUS46 KSTO 210355
MTRBLU
SPECI KBLU 210354Z AUTO 22011G23KT 2SM -RA BR OVC002 06/04 A3003 RMK
AO2 P0000 T00560044





000
SAUS46 KSTO 210353
MTRBLU
METAR KBLU 210352Z AUTO 22010G23KT 1 1/4SM -RA BR OVC002 06/04 A3003
RMK AO2 SLP134 P0020 T00560044





000
SAUS46 KSTO 210353
MTRBLU
METAR KBLU 210352Z AUTO 22010G23KT 1 1/4SM -RA BR OVC002 06/04 A3003
RMK AO2 SLP134 P0020 T00560044





000
SAUS46 KSTO 210253
MTRBLU
METAR KBLU 210252Z AUTO 22009G17KT 1/2SM RA FG VV002 07/06 A3002 RMK
AO2 SLP129 P0034 60046 T00670056 53002





000
SAUS46 KSTO 210253
MTRBLU
METAR KBLU 210252Z AUTO 22009G17KT 1/2SM RA FG VV002 07/06 A3002 RMK
AO2 SLP129 P0034 60046 T00670056 53002





000
SAUS46 KSTO 210238
MTRBLU
SPECI KBLU 210237Z AUTO 21011G18KT 1/2SM RA FG VV002 07/06 A3002 RMK
AO2 P0030 T00670056





000
SAUS46 KSTO 210229
MTRBLU
SPECI KBLU 210228Z AUTO 22009G19KT 190V250 1/4SM VCTS -RA FG VV002
06/06 A3002 RMK AO2 P0028 T00610056





000
SAUS46 KSTO 210217
MTRBLU
SPECI KBLU 210216Z AUTO 22012G25KT 190V280 1/4SM -RA FG VV002 07/05
A3001 RMK AO2 P0027 T00670050





000
SAUS46 KSTO 210217
MTRBLU
SPECI KBLU 210216Z AUTO 22012G25KT 190V280 1/4SM -RA FG VV002 07/05
A3001 RMK AO2 P0027 T00670050





000
SAUS46 KSTO 210202
MTRBLU
SPECI KBLU 210201Z AUTO 24012G22KT 1/2SM +RA FG VV003 07/06 A3001
RMK AO2 P0025 T00670056





000
SAUS46 KSTO 210202
MTRBLU
SPECI KBLU 210201Z AUTO 24012G22KT 1/2SM +RA FG VV003 07/06 A3001
RMK AO2 P0025 T00670056





000
SAUS46 KSTO 210153
MTRBLU
METAR KBLU 210152Z AUTO 23009G18KT 1SM +RA BR VV003 08/06 A3001 RMK
AO2 PK WND 14026/0117 RAB31 SLP123 P0012 T00780061





000
SAUS46 KSTO 210153
MTRBLU
METAR KBLU 210152Z AUTO 23009G18KT 1SM +RA BR VV003 08/06 A3001 RMK
AO2 PK WND 14026/0117 RAB31 SLP123 P0012 T00780061





000
SAUS46 KSTO 210143
MTRBLU
SPECI KBLU 210142Z AUTO 20010G21KT 160V260 1 3/4SM RA BR OVC002
08/07 A2999 RMK AO2 PK WND 14026/0117 RAB31 P0003 T00830072





000
SAUS46 KSTO 210137
MTRBLU
SPECI KBLU 210136Z AUTO 20014G23KT 3SM -RA BR BKN003 OVC006 08/07
A3000 RMK AO2 PK WND 14026/0117 RAB31 P0000 T00830072





000
SAUS46 KSTO 210128
MTRBLU
SPECI KBLU 210127Z AUTO 18015G23KT 1 1/2SM BR BKN003 OVC008 09/07
A2999 RMK AO2 PK WND 14026/0117 VIS 3/4V5 T00890072





000
SAUS46 KSTO 210107
MTRBLU
SPECI KBLU 210106Z AUTO 16012G21KT 9SM BKN004 BKN008 OVC012 09/07
A2998 RMK AO2 CIG 002V006 T00890072





000
SAUS46 KSTO 210053
MTRBLU
METAR KBLU 210052Z AUTO 15012G24KT 10SM SCT003 BKN007 OVC027 09/07
A2999 RMK AO2 RAB04E16B33E43 SLP116 P0000 T00890067





000
SAUS46 KSTO 210031
MTRBLU
SPECI KBLU 210030Z AUTO 16012KT 3SM BR BKN003 OVC026 09/07 A3000 RMK
AO2 RAB04E16 P0000 T00890072





000
SAUS46 KSTO 210021
MTRBLU
SPECI KBLU 210020Z AUTO 18012KT 1 3/4SM BR BKN003 OVC011 09/08 A3001
RMK AO2 VIS 1/2V5 RAB04E16 P0000 T00890078





000
SAUS46 KSTO 202353
MTRBLU
METAR KBLU 202352Z AUTO 18012G18KT 10SM BKN009 BKN017 OVC055 09/07
A3001 RMK AO2 CIG 005V013 SLP122 T00940072 10133 20094 58007





000
SAUS46 KSTO 202336
MTRBLU
SPECI KBLU 202335Z AUTO 17012G22KT 10SM BKN009 BKN017 OVC060 10/07
A3002 RMK AO2 CIG 006V012 T01000072





000
SAUS46 KSTO 202254
MTRBLU
METAR KBLU 202252Z AUTO 17014KT 10SM BKN013 BKN021 OVC070 11/07
A3002 RMK AO2 SLP120 T01060067





000
SAUS46 KSTO 202254
MTRBLU
METAR KBLU 202252Z AUTO 17014KT 10SM BKN013 BKN021 OVC070 11/07
A3002 RMK AO2 SLP120 T01060067





000
SAUS46 KSTO 202205
MTRBLU
SPECI KBLU 202203Z AUTO 20012G19KT 10SM BKN022 BKN029 OVC075 12/06
A3002 RMK AO2 T01220056





000
SAUS46 KSTO 202205
MTRBLU
SPECI KBLU 202203Z AUTO 20012G19KT 10SM BKN022 BKN029 OVC075 12/06
A3002 RMK AO2 T01220056





000
SAUS46 KSTO 202153
MTRBLU
METAR KBLU 202152Z AUTO 18012KT 10SM FEW022 SCT029 BKN075 12/06
A3003 RMK AO2 SLP119 T01220056





000
SAUS46 KSTO 202153
MTRBLU
METAR KBLU 202152Z AUTO 18012KT 10SM FEW022 SCT029 BKN075 12/06
A3003 RMK AO2 SLP119 T01220056





000
SAUS46 KSTO 202053
MTRBLU
METAR KBLU 202052Z AUTO 19014G21KT 10SM FEW026 FEW032 13/04 A3004
RMK AO2 SLP119 T01280044 58005





000
SAUS46 KSTO 201953
MTRBLU
METAR KBLU 201952Z AUTO 18015G21KT 10SM SCT026 BKN033 13/05 A3005
RMK AO2 SLP122 T01280050





000
SAUS46 KSTO 201853
MTRBLU
METAR KBLU 201852Z AUTO 18014G20KT 10SM SCT024 SCT031 13/06 A3006
RMK AO2 SLP125 T01280056





000
SAUS46 KSTO 201827
MTRBLU
SPECI KBLU 201825Z AUTO 18013KT 10SM SCT023 BKN033 12/06 A3006 RMK
AO2 T01170056





000
SAUS46 KSTO 201753
MTRBLU
METAR KBLU 201752Z AUTO 16011G21KT 10SM BKN025 12/06 A3005 RMK AO2
SLP125 T01220056 10122 20100 51006





000
SAUS46 KSTO 201654
MTRBLU
METAR KBLU 201652Z AUTO 17012G19KT 10SM SCT023 12/06 A3005 RMK AO2
SLP125 T01170056





000
SAUS46 KSTO 201640
MTRBLU
SPECI KBLU 201638Z AUTO 17012KT 10SM BKN022 12/05 A3006 RMK AO2
T01170050





000
SAUS46 KSTO 201621
MTRBLU
SPECI KBLU 201620Z AUTO 16008G16KT 10SM SCT022 SCT029 11/05 A3005
RMK AO2 T01110050





000
SAUS46 KSTO 201553
MTRBLU
METAR KBLU 201552Z AUTO 16009KT 10SM BKN026 11/02 A3005 RMK AO2
SLP127 T01060022





000
SAUS46 KSTO 201453
MTRBLU
METAR KBLU 201452Z AUTO 17006KT 10SM BKN023 11/01 A3003 RMK AO2
SLP121 T01060006 51005





000
SAUS46 KSTO 201353
MTRBLU
METAR KBLU 201352Z AUTO 15006KT 10SM CLR 11/01 A3002 RMK AO2 SLP112
T01060011





000
SAUS46 KSTO 201253
MTRBLU
METAR KBLU 201252Z AUTO 13004KT 10SM CLR 11/02 A3002 RMK AO2 SLP107
T01060017





000
SAUS46 KSTO 201153
MTRBLU
METAR KBLU 201152Z AUTO 14004KT 10SM CLR 11/02 A3002 RMK AO2 SLP108
T01060017 10122 20106 58006





000
SAUS46 KSTO 201053
MTRBLU
METAR KBLU 201052Z AUTO 15005KT 10SM CLR 11/02 A3004 RMK AO2 SLP108
T01110022





000
SAUS46 KSTO 201053
MTRBLU
METAR KBLU 201052Z AUTO 15005KT 10SM CLR 11/02 A3004 RMK AO2 SLP108
T01110022





000
SAUS46 KSTO 200953
MTRBLU
METAR KBLU 200952Z AUTO 14005KT 10SM CLR 11/02 A3005 RMK AO2 SLP111
T01110022





000
SAUS46 KSTO 200953
MTRBLU
METAR KBLU 200952Z AUTO 14005KT 10SM CLR 11/02 A3005 RMK AO2 SLP111
T01110022





000
SAUS46 KSTO 200853
MTRBLU
METAR KBLU 200852Z AUTO 14005KT 10SM CLR 11/02 A3004 RMK AO2 SLP110
T01110022 58003





000
SAUS46 KSTO 200753
MTRBLU
METAR KBLU 200752Z AUTO 14004KT 10SM CLR 11/02 A3005 RMK AO2 SLP112
T01110022 401780111





000
SAUS46 KSTO 200753
MTRBLU
METAR KBLU 200752Z AUTO 14004KT 10SM CLR 11/02 A3005 RMK AO2 SLP112
T01110022 401780111





000
SAUS46 KSTO 200653
MTRBLU
METAR KBLU 200652Z AUTO 17004KT 10SM CLR 11/03 A3005 RMK AO2 SLP114
T01110028





000
SAUS46 KSTO 200553
MTRBLU
METAR KBLU 200552Z AUTO 17005KT 10SM CLR 12/02 A3005 RMK AO2 SLP116
T01220022 10167 20117 53003





000
SAUS46 KSTO 200453
MTRBLU
METAR KBLU 200452Z AUTO 14004KT 10SM CLR 12/02 A3005 RMK AO2 SLP117
T01220022





000
SAUS46 KSTO 200353
MTRBLU
METAR KBLU 200352Z AUTO 12003KT 10SM CLR 12/02 A3004 RMK AO2 SLP117
T01220017





    US Dept of Commerce
    National Oceanic and Atmospheric Administration
    National Weather Service
    1325 East West Highway
    Silver Spring, MD 20910
    Page Author: NWS Internet Services Team
Disclaimer
Information Quality
Credits
Glossary
Privacy Policy
Freedom of Information Act (FOIA)
About Us
Career Opportunities